Tutti
Richmond Airport (Richmond, Queensland) RCM Meteo
|
Richmond, Queensland (RCM / YRMD)
Cielo sereno
Venti leggeri |
|
17 °C |
Previsione area Terminal RCM
| Date | Time (AEST) | Flight Rules | Wind Dir. | Speed | Type | Height AGL (ft) | Visibility | Remarks | ||||||
|---|---|---|---|---|---|---|---|---|---|---|---|---|---|---|
Storico METAR RCM recente
| Date | Time (AEST) | Flight Rules | Wind Dir. | Speed | Type | Height AGL (ft) | Visibility | Temp (°C) | Temp (°F) | Dew Point (°C) | Dew Point (°F) | Rel. Humid. | Pressure | Density Altitude | Remarks |
|---|---|---|---|---|---|---|---|---|---|---|---|---|---|---|---|
| 04-set | 04:00 | VFR | 50° | 6 kt | 10000 meters | 17° | 62° | 5° | 41° | 45% | 1018 mb | 774 ft | |||
| 04-set | 03:00 | VFR | 60° | 7 kt | 10000 meters | 17° | 62° | 4° | 39° | 42% | 1018 mb | 774 ft | |||
| 04-set | 02:00 | VFR | 80° | 5 kt | 10000 meters | 17° | 62° | 4° | 39° | 42% | 1018 mb | 774 ft | |||
| 04-set | 01:00 | VFR | 90° | 6 kt | 10000 meters | 19° | 66° | 4° | 39° | 37% | 1018 mb | 1.014 ft | |||
| 04-set | 00:00 | VFR | 90° | 7 kt | 10000 meters | 20° | 68° | 4° | 39° | 35% | 1019 mb | 1.105 ft | |||
| 03-set | 23:00 | VFR | 100° | 9 kt | 10000 meters | 21° | 69° | 4° | 39° | 33% | 1018 mb | 1.254 ft | |||
| 03-set | 22:00 | VFR | 90° | 8 kt | 10000 meters | 22° | 71° | 3° | 37° | 29% | 1018 mb | 1.374 ft | |||
| 03-set | 21:00 | VFR | 100° | 9 kt | 10000 meters | 24° | 75° | 2° | 35° | 24% | 1018 mb | 1.614 ft | |||
| 03-set | 20:00 | VFR | 120° | 9 kt | 10000 meters | 25° | 77° | 2° | 35° | 22% | 1017 mb | 1.764 ft | |||
| 03-set | 19:00 | VFR | 110° | 9 kt | 10000 meters | 27° | 80° | 2° | 35° | 20% | 1017 mb | 2.004 ft | |||
| 03-set | 18:00 | VFR | 110° | 12 kt | 10000 meters | 31° | 87° | 1° | 33° | 15% | 1017 mb | 2.484 ft | |||
| 03-set | 17:00 | VFR | 120° | 11 kt | 10000 meters | 33° | 91° | 1° | 33° | 13% | 1016 mb | 2.754 ft | |||
| 03-set | 16:00 | VFR | 100° | 11 kt | 10000 meters | 33° | 91° | 2° | 35° | 14% | 1016 mb | 2.754 ft | |||
| 03-set | 15:00 | VFR | 90° | 13 kt | 10000 meters | 33° | 91° | -1° | 30° | 11% | 1017 mb | 2.724 ft | |||
| 03-set | 14:00 | VFR | 140° | 12 kt | 10000 meters | 33° | 91° | -1° | 30° | 11% | 1018 mb | 2.694 ft | |||
| 03-set | 13:00 | VFR | 90° | 9 kt | 10000 meters | 32° | 89° | 3° | 37° | 16% | 1019 mb | 2.545 ft | |||
| 03-set | 12:00 | VFR | 80° | 7 kt | 10000 meters | 31° | 87° | 5° | 41° | 19% | 1020 mb | 2.395 ft | |||
| 03-set | 11:00 | VFR | 70° | 7 kt | 10000 meters | 30° | 86° | 6° | 42° | 22% | 1021 mb | 2.246 ft | |||
| 03-set | 10:00 | VFR | 40° | 7 kt | 10000 meters | 28° | 82° | 10° | 50° | 32% | 1022 mb | 1.976 ft | |||
| 03-set | 09:00 | VFR | 30° | 7 kt | 10000 meters | 24° | 75° | 12° | 53° | 47% | 1022 mb | 1.496 ft | |||
| 03-set | 08:00 | VFR | 60° | 6 kt | 10000 meters | 19° | 66° | 11° | 51° | 60% | 1021 mb | 926 ft | |||
| 03-set | 07:00 | VFR | 100° | 6 kt | 10000 meters | 15° | 59° | 8° | 46° | 63% | 1021 mb | 446 ft | |||
| 03-set | 06:00 | VFR | 90° | 6 kt | 10000 meters | 16° | 60° | 8° | 46° | 59% | 1020 mb | 595 ft | |||
| 03-set | 05:00 | VFR | 70° | 7 kt | 10000 meters | 17° | 62° | 7° | 44° | 52% | 1019 mb | 745 ft |
Accedi
| Il tuo browser non è supportato. fai l'upgrade del tuo browser |
